sensor_id;sensor_type;location;lat;lon;timestamp;P1;durP1;ratioP1;P2;durP2;ratioP2
59308;SDS011;48433;53.016;-2.260;2023-04-07T00:02:18;20.65;;;7.90;;
59308;SDS011;48433;53.016;-2.260;2023-04-07T00:04:46;22.42;;;7.57;;
59308;SDS011;48433;53.016;-2.260;2023-04-07T00:07:14;23.27;;;8.88;;
59308;SDS011;48433;53.016;-2.260;2023-04-07T00:09:41;19.35;;;7.75;;
59308;SDS011;48433;53.016;-2.260;2023-04-07T00:12:09;24.60;;;8.68;;
59308;SDS011;48433;53.016;-2.260;2023-04-07T00:14:37;15.70;;;5.68;;
59308;SDS011;48433;53.016;-2.260;2023-04-07T00:17:04;14.65;;;3.92;;
59308;SDS011;48433;53.016;-2.260;2023-04-07T00:19:32;15.40;;;3.75;;
59308;SDS011;48433;53.016;-2.260;2023-04-07T00:21:59;12.60;;;3.75;;
59308;SDS011;48433;53.016;-2.260;2023-04-07T00:24:27;14.05;;;4.68;;
59308;SDS011;48433;53.016;-2.260;2023-04-07T00:27:00;11.15;;;3.40;;
59308;SDS011;48433;53.016;-2.260;2023-04-07T00:29:28;16.23;;;3.00;;
59308;SDS011;48433;53.016;-2.260;2023-04-07T00:31:56;10.77;;;3.10;;
59308;SDS011;48433;53.016;-2.260;2023-04-07T00:34:23;17.42;;;4.53;;
59308;SDS011;48433;53.016;-2.260;2023-04-07T00:36:51;18.63;;;4.03;;
59308;SDS011;48433;53.016;-2.260;2023-04-07T00:39:19;12.90;;;3.53;;
59308;SDS011;48433;53.016;-2.260;2023-04-07T00:41:47;12.52;;;3.08;;
59308;SDS011;48433;53.016;-2.260;2023-04-07T00:44:15;11.38;;;3.10;;
59308;SDS011;48433;53.016;-2.260;2023-04-07T00:46:43;13.25;;;3.78;;
59308;SDS011;48433;53.016;-2.260;2023-04-07T00:49:11;12.18;;;3.42;;
59308;SDS011;48433;53.016;-2.260;2023-04-07T00:51:39;11.95;;;3.70;;
59308;SDS011;48433;53.016;-2.260;2023-04-07T00:54:07;14.50;;;3.55;;
59308;SDS011;48433;53.016;-2.260;2023-04-07T00:56:36;9.55;;;2.47;;
59308;SDS011;48433;53.016;-2.260;2023-04-07T00:59:04;15.30;;;3.25;;
59308;SDS011;48433;53.016;-2.260;2023-04-07T01:01:39;18.75;;;2.88;;
59308;SDS011;48433;53.016;-2.260;2023-04-07T01:04:34;20.40;;;4.03;;
59308;SDS011;48433;53.016;-2.260;2023-04-07T01:07:14;13.77;;;2.70;;
59308;SDS011;48433;53.016;-2.260;2023-04-07T01:09:57;19.40;;;4.18;;
59308;SDS011;48433;53.016;-2.260;2023-04-07T01:12:39;10.02;;;3.35;;
59308;SDS011;48433;53.016;-2.260;2023-04-07T01:15:25;17.10;;;3.83;;
59308;SDS011;48433;53.016;-2.260;2023-04-07T01:18:05;15.52;;;3.70;;
59308;SDS011;48433;53.016;-2.260;2023-04-07T01:20:38;14.52;;;2.80;;
59308;SDS011;48433;53.016;-2.260;2023-04-07T01:23:09;9.93;;;2.65;;
59308;SDS011;48433;53.016;-2.260;2023-04-07T01:26:25;25.65;;;3.42;;
59308;SDS011;48433;53.016;-2.260;2023-04-07T01:32:01;9.07;;;3.33;;
59308;SDS011;48433;53.016;-2.260;2023-04-07T01:34:30;16.13;;;3.20;;
59308;SDS011;48433;53.016;-2.260;2023-04-07T01:37:00;17.77;;;3.38;;
59308;SDS011;48433;53.016;-2.260;2023-04-07T01:39:28;12.70;;;2.70;;
59308;SDS011;48433;53.016;-2.260;2023-04-07T01:41:56;10.60;;;3.05;;
59308;SDS011;48433;53.016;-2.260;2023-04-07T01:44:28;16.70;;;3.22;;
59308;SDS011;48433;53.016;-2.260;2023-04-07T01:46:58;15.05;;;3.25;;
59308;SDS011;48433;53.016;-2.260;2023-04-07T01:49:27;14.38;;;3.00;;
59308;SDS011;48433;53.016;-2.260;2023-04-07T01:51:56;12.38;;;4.30;;
59308;SDS011;48433;53.016;-2.260;2023-04-07T01:54:25;13.82;;;2.95;;
59308;SDS011;48433;53.016;-2.260;2023-04-07T01:56:54;17.83;;;4.47;;
59308;SDS011;48433;53.016;-2.260;2023-04-07T01:59:23;15.05;;;4.07;;
59308;SDS011;48433;53.016;-2.260;2023-04-07T02:01:51;15.45;;;3.50;;
59308;SDS011;48433;53.016;-2.260;2023-04-07T02:04:25;15.75;;;3.35;;
59308;SDS011;48433;53.016;-2.260;2023-04-07T02:06:59;16.05;;;3.00;;
59308;SDS011;48433;53.016;-2.260;2023-04-07T02:12:09;13.23;;;3.03;;
59308;SDS011;48433;53.016;-2.260;2023-04-07T02:14:45;15.55;;;3.25;;
59308;SDS011;48433;53.016;-2.260;2023-04-07T02:17:15;17.20;;;3.08;;
59308;SDS011;48433;53.016;-2.260;2023-04-07T02:19:43;18.65;;;3.92;;
59308;SDS011;48433;53.016;-2.260;2023-04-07T02:22:14;13.55;;;3.38;;
59308;SDS011;48433;53.016;-2.260;2023-04-07T02:24:42;15.95;;;4.03;;
59308;SDS011;48433;53.016;-2.260;2023-04-07T02:27:10;18.00;;;3.67;;
59308;SDS011;48433;53.016;-2.260;2023-04-07T02:29:37;15.07;;;3.40;;
59308;SDS011;48433;53.016;-2.260;2023-04-07T02:32:05;10.93;;;3.20;;
59308;SDS011;48433;53.016;-2.260;2023-04-07T02:34:33;9.85;;;3.08;;
59308;SDS011;48433;53.016;-2.260;2023-04-07T02:37:00;10.63;;;3.45;;
59308;SDS011;48433;53.016;-2.260;2023-04-07T02:39:28;16.27;;;3.40;;
59308;SDS011;48433;53.016;-2.260;2023-04-07T02:41:55;13.80;;;4.25;;
59308;SDS011;48433;53.016;-2.260;2023-04-07T02:44:23;21.75;;;4.50;;
59308;SDS011;48433;53.016;-2.260;2023-04-07T02:46:51;19.85;;;8.48;;
59308;SDS011;48433;53.016;-2.260;2023-04-07T02:49:18;13.95;;;4.63;;
59308;SDS011;48433;53.016;-2.260;2023-04-07T02:51:46;11.65;;;3.60;;
59308;SDS011;48433;53.016;-2.260;2023-04-07T02:54:13;7.55;;;2.85;;
59308;SDS011;48433;53.016;-2.260;2023-04-07T02:56:42;10.88;;;3.00;;
59308;SDS011;48433;53.016;-2.260;2023-04-07T02:59:09;10.50;;;2.75;;
59308;SDS011;48433;53.016;-2.260;2023-04-07T03:04:09;12.82;;;3.58;;
59308;SDS011;48433;53.016;-2.260;2023-04-07T03:06:37;12.25;;;3.67;;
59308;SDS011;48433;53.016;-2.260;2023-04-07T03:09:13;10.00;;;3.25;;
59308;SDS011;48433;53.016;-2.260;2023-04-07T03:11:41;10.13;;;2.90;;
59308;SDS011;48433;53.016;-2.260;2023-04-07T03:14:09;12.60;;;3.35;;
59308;SDS011;48433;53.016;-2.260;2023-04-07T03:16:46;11.48;;;2.95;;
59308;SDS011;48433;53.016;-2.260;2023-04-07T03:19:14;14.20;;;3.03;;
59308;SDS011;48433;53.016;-2.260;2023-04-07T03:21:45;14.80;;;4.38;;
59308;SDS011;48433;53.016;-2.260;2023-04-07T03:24:13;14.07;;;4.20;;
59308;SDS011;48433;53.016;-2.260;2023-04-07T03:26:41;11.00;;;3.10;;
59308;SDS011;48433;53.016;-2.260;2023-04-07T03:29:38;13.82;;;3.90;;
59308;SDS011;48433;53.016;-2.260;2023-04-07T03:32:08;14.63;;;3.77;;
59308;SDS011;48433;53.016;-2.260;2023-04-07T03:34:37;11.63;;;3.90;;
59308;SDS011;48433;53.016;-2.260;2023-04-07T03:37:04;16.08;;;4.32;;
59308;SDS011;48433;53.016;-2.260;2023-04-07T03:39:35;11.52;;;4.20;;
59308;SDS011;48433;53.016;-2.260;2023-04-07T03:42:11;14.20;;;4.82;;
59308;SDS011;48433;53.016;-2.260;2023-04-07T03:44:40;12.23;;;4.28;;
59308;SDS011;48433;53.016;-2.260;2023-04-07T03:47:09;15.60;;;4.32;;
59308;SDS011;48433;53.016;-2.260;2023-04-07T03:49:38;17.02;;;3.92;;
59308;SDS011;48433;53.016;-2.260;2023-04-07T03:52:06;15.82;;;4.07;;
59308;SDS011;48433;53.016;-2.260;2023-04-07T03:54:33;12.75;;;5.13;;
59308;SDS011;48433;53.016;-2.260;2023-04-07T03:57:02;15.38;;;5.13;;
59308;SDS011;48433;53.016;-2.260;2023-04-07T03:59:34;11.90;;;3.78;;
59308;SDS011;48433;53.016;-2.260;2023-04-07T04:02:03;15.05;;;4.57;;
59308;SDS011;48433;53.016;-2.260;2023-04-07T04:04:31;18.45;;;4.68;;
59308;SDS011;48433;53.016;-2.260;2023-04-07T04:07:00;19.38;;;5.15;;
59308;SDS011;48433;53.016;-2.260;2023-04-07T04:09:41;13.63;;;4.40;;
59308;SDS011;48433;53.016;-2.260;2023-04-07T04:12:10;13.38;;;4.00;;
59308;SDS011;48433;53.016;-2.260;2023-04-07T04:14:45;11.10;;;3.97;;
59308;SDS011;48433;53.016;-2.260;2023-04-07T04:17:14;13.43;;;4.35;;
59308;SDS011;48433;53.016;-2.260;2023-04-07T04:19:45;15.93;;;4.15;;
59308;SDS011;48433;53.016;-2.260;2023-04-07T04:22:20;12.75;;;3.85;;
59308;SDS011;48433;53.016;-2.260;2023-04-07T04:27:21;14.98;;;3.63;;
59308;SDS011;48433;53.016;-2.260;2023-04-07T04:29:55;10.90;;;4.15;;
59308;SDS011;48433;53.016;-2.260;2023-04-07T04:32:33;11.70;;;4.50;;
59308;SDS011;48433;53.016;-2.260;2023-04-07T04:35:01;14.60;;;4.25;;
59308;SDS011;48433;53.016;-2.260;2023-04-07T04:37:33;14.00;;;4.68;;
59308;SDS011;48433;53.016;-2.260;2023-04-07T04:40:04;16.45;;;6.55;;
59308;SDS011;48433;53.016;-2.260;2023-04-07T04:42:35;14.60;;;4.05;;
59308;SDS011;48433;53.016;-2.260;2023-04-07T04:45:03;11.55;;;3.80;;
59308;SDS011;48433;53.016;-2.260;2023-04-07T04:47:32;11.10;;;3.55;;
59308;SDS011;48433;53.016;-2.260;2023-04-07T04:50:02;9.70;;;4.00;;
59308;SDS011;48433;53.016;-2.260;2023-04-07T04:52:34;14.60;;;4.93;;
59308;SDS011;48433;53.016;-2.260;2023-04-07T04:55:02;13.50;;;4.35;;
59308;SDS011;48433;53.016;-2.260;2023-04-07T04:57:30;12.80;;;4.10;;
59308;SDS011;48433;53.016;-2.260;2023-04-07T04:59:58;10.23;;;4.03;;
59308;SDS011;48433;53.016;-2.260;2023-04-07T05:02:26;17.02;;;4.47;;
59308;SDS011;48433;53.016;-2.260;2023-04-07T05:04:54;15.45;;;5.03;;
59308;SDS011;48433;53.016;-2.260;2023-04-07T05:07:26;13.07;;;4.22;;
59308;SDS011;48433;53.016;-2.260;2023-04-07T05:09:55;18.00;;;6.35;;
59308;SDS011;48433;53.016;-2.260;2023-04-07T05:12:23;15.25;;;4.63;;
59308;SDS011;48433;53.016;-2.260;2023-04-07T05:14:56;14.65;;;5.10;;
59308;SDS011;48433;53.016;-2.260;2023-04-07T05:17:24;20.70;;;4.72;;
59308;SDS011;48433;53.016;-2.260;2023-04-07T05:19:52;21.02;;;6.05;;
59308;SDS011;48433;53.016;-2.260;2023-04-07T05:22:32;16.27;;;5.38;;
59308;SDS011;48433;53.016;-2.260;2023-04-07T05:25:01;14.27;;;5.07;;
59308;SDS011;48433;53.016;-2.260;2023-04-07T05:27:29;16.73;;;5.32;;
59308;SDS011;48433;53.016;-2.260;2023-04-07T05:30:01;11.57;;;4.72;;
59308;SDS011;48433;53.016;-2.260;2023-04-07T05:32:33;23.77;;;5.18;;
59308;SDS011;48433;53.016;-2.260;2023-04-07T05:35:07;16.55;;;4.80;;
59308;SDS011;48433;53.016;-2.260;2023-04-07T05:37:39;18.45;;;5.00;;
59308;SDS011;48433;53.016;-2.260;2023-04-07T05:40:07;15.35;;;4.55;;
59308;SDS011;48433;53.016;-2.260;2023-04-07T05:42:35;16.98;;;4.55;;
59308;SDS011;48433;53.016;-2.260;2023-04-07T05:45:03;14.30;;;4.78;;
59308;SDS011;48433;53.016;-2.260;2023-04-07T05:47:33;13.40;;;5.28;;
59308;SDS011;48433;53.016;-2.260;2023-04-07T05:50:01;13.38;;;4.65;;
59308;SDS011;48433;53.016;-2.260;2023-04-07T05:52:31;14.23;;;4.93;;
59308;SDS011;48433;53.016;-2.260;2023-04-07T05:55:08;13.13;;;4.97;;
59308;SDS011;48433;53.016;-2.260;2023-04-07T05:57:36;15.90;;;4.78;;
59308;SDS011;48433;53.016;-2.260;2023-04-07T06:00:06;15.27;;;5.38;;
59308;SDS011;48433;53.016;-2.260;2023-04-07T06:02:40;20.02;;;6.38;;
59308;SDS011;48433;53.016;-2.260;2023-04-07T06:05:13;12.95;;;4.45;;
59308;SDS011;48433;53.016;-2.260;2023-04-07T06:07:41;13.60;;;4.22;;
59308;SDS011;48433;53.016;-2.260;2023-04-07T06:10:09;15.90;;;4.80;;
59308;SDS011;48433;53.016;-2.260;2023-04-07T06:12:37;12.02;;;5.20;;
59308;SDS011;48433;53.016;-2.260;2023-04-07T06:15:05;13.45;;;4.93;;
59308;SDS011;48433;53.016;-2.260;2023-04-07T06:17:33;15.95;;;5.68;;
59308;SDS011;48433;53.016;-2.260;2023-04-07T06:20:00;11.43;;;5.15;;
59308;SDS011;48433;53.016;-2.260;2023-04-07T06:22:31;12.45;;;5.82;;
59308;SDS011;48433;53.016;-2.260;2023-04-07T06:24:59;15.95;;;5.30;;
59308;SDS011;48433;53.016;-2.260;2023-04-07T06:27:27;21.48;;;5.50;;
59308;SDS011;48433;53.016;-2.260;2023-04-07T06:29:59;14.05;;;5.97;;
59308;SDS011;48433;53.016;-2.260;2023-04-07T06:32:27;15.45;;;6.38;;
59308;SDS011;48433;53.016;-2.260;2023-04-07T06:34:56;16.73;;;5.88;;
59308;SDS011;48433;53.016;-2.260;2023-04-07T06:37:23;19.08;;;4.82;;
59308;SDS011;48433;53.016;-2.260;2023-04-07T06:39:53;16.77;;;5.05;;
59308;SDS011;48433;53.016;-2.260;2023-04-07T06:42:21;11.88;;;5.25;;
59308;SDS011;48433;53.016;-2.260;2023-04-07T06:44:57;16.02;;;5.47;;
59308;SDS011;48433;53.016;-2.260;2023-04-07T06:47:25;19.70;;;5.90;;
59308;SDS011;48433;53.016;-2.260;2023-04-07T06:49:52;12.07;;;5.30;;
59308;SDS011;48433;53.016;-2.260;2023-04-07T06:52:20;16.40;;;6.25;;
59308;SDS011;48433;53.016;-2.260;2023-04-07T06:54:47;13.48;;;6.13;;
59308;SDS011;48433;53.016;-2.260;2023-04-07T06:57:15;13.07;;;4.65;;
59308;SDS011;48433;53.016;-2.260;2023-04-07T06:59:43;15.48;;;5.60;;
59308;SDS011;48433;53.016;-2.260;2023-04-07T07:02:11;13.98;;;5.63;;
59308;SDS011;48433;53.016;-2.260;2023-04-07T07:04:39;15.60;;;6.22;;
59308;SDS011;48433;53.016;-2.260;2023-04-07T07:07:07;15.57;;;5.28;;
59308;SDS011;48433;53.016;-2.260;2023-04-07T07:09:35;13.50;;;5.20;;
59308;SDS011;48433;53.016;-2.260;2023-04-07T07:12:03;13.80;;;5.40;;
59308;SDS011;48433;53.016;-2.260;2023-04-07T07:14:32;20.77;;;5.93;;
59308;SDS011;48433;53.016;-2.260;2023-04-07T07:17:00;14.73;;;5.60;;
59308;SDS011;48433;53.016;-2.260;2023-04-07T07:19:27;13.23;;;4.90;;
59308;SDS011;48433;53.016;-2.260;2023-04-07T07:21:56;14.88;;;5.22;;
59308;SDS011;48433;53.016;-2.260;2023-04-07T07:24:23;13.82;;;4.93;;
59308;SDS011;48433;53.016;-2.260;2023-04-07T07:26:52;12.82;;;5.15;;
59308;SDS011;48433;53.016;-2.260;2023-04-07T07:29:20;16.85;;;5.10;;
59308;SDS011;48433;53.016;-2.260;2023-04-07T07:31:48;16.55;;;5.55;;
59308;SDS011;48433;53.016;-2.260;2023-04-07T07:34:16;12.68;;;5.13;;
59308;SDS011;48433;53.016;-2.260;2023-04-07T07:36:44;18.55;;;5.10;;
59308;SDS011;48433;53.016;-2.260;2023-04-07T07:39:12;23.20;;;5.13;;
59308;SDS011;48433;53.016;-2.260;2023-04-07T07:41:40;23.55;;;6.38;;
59308;SDS011;48433;53.016;-2.260;2023-04-07T07:44:08;15.20;;;5.00;;
59308;SDS011;48433;53.016;-2.260;2023-04-07T07:46:36;21.63;;;5.28;;
59308;SDS011;48433;53.016;-2.260;2023-04-07T07:49:04;22.13;;;5.35;;
59308;SDS011;48433;53.016;-2.260;2023-04-07T07:51:31;20.10;;;5.70;;
59308;SDS011;48433;53.016;-2.260;2023-04-07T07:53:59;18.08;;;5.10;;
59308;SDS011;48433;53.016;-2.260;2023-04-07T07:56:27;15.43;;;5.35;;
59308;SDS011;48433;53.016;-2.260;2023-04-07T07:58:55;14.85;;;5.82;;
59308;SDS011;48433;53.016;-2.260;2023-04-07T08:01:24;20.88;;;8.05;;
59308;SDS011;48433;53.016;-2.260;2023-04-07T08:03:52;21.13;;;7.22;;
59308;SDS011;48433;53.016;-2.260;2023-04-07T08:06:20;20.10;;;8.88;;
59308;SDS011;48433;53.016;-2.260;2023-04-07T08:08:49;17.80;;;7.53;;
59308;SDS011;48433;53.016;-2.260;2023-04-07T08:11:17;17.55;;;8.10;;
59308;SDS011;48433;53.016;-2.260;2023-04-07T08:13:44;16.90;;;6.07;;
59308;SDS011;48433;53.016;-2.260;2023-04-07T08:16:12;15.55;;;6.20;;
59308;SDS011;48433;53.016;-2.260;2023-04-07T08:18:40;14.90;;;5.45;;
59308;SDS011;48433;53.016;-2.260;2023-04-07T08:21:08;18.88;;;6.32;;
59308;SDS011;48433;53.016;-2.260;2023-04-07T08:23:35;19.10;;;5.82;;
59308;SDS011;48433;53.016;-2.260;2023-04-07T08:26:03;13.75;;;4.25;;
59308;SDS011;48433;53.016;-2.260;2023-04-07T08:28:31;19.60;;;5.85;;
59308;SDS011;48433;53.016;-2.260;2023-04-07T08:30:59;13.30;;;4.13;;
59308;SDS011;48433;53.016;-2.260;2023-04-07T08:33:26;19.70;;;4.00;;
59308;SDS011;48433;53.016;-2.260;2023-04-07T08:35:54;17.35;;;4.38;;
59308;SDS011;48433;53.016;-2.260;2023-04-07T08:38:22;11.00;;;3.97;;
59308;SDS011;48433;53.016;-2.260;2023-04-07T08:40:52;12.40;;;2.95;;
59308;SDS011;48433;53.016;-2.260;2023-04-07T08:43:25;12.02;;;3.42;;
59308;SDS011;48433;53.016;-2.260;2023-04-07T08:45:55;13.15;;;2.90;;
59308;SDS011;48433;53.016;-2.260;2023-04-07T08:48:23;14.00;;;3.05;;
59308;SDS011;48433;53.016;-2.260;2023-04-07T08:50:53;9.88;;;3.20;;
59308;SDS011;48433;53.016;-2.260;2023-04-07T08:53:25;9.02;;;2.47;;
59308;SDS011;48433;53.016;-2.260;2023-04-07T08:55:58;10.95;;;2.55;;
59308;SDS011;48433;53.016;-2.260;2023-04-07T08:58:28;12.20;;;3.22;;
59308;SDS011;48433;53.016;-2.260;2023-04-07T09:00:56;14.52;;;3.50;;
59308;SDS011;48433;53.016;-2.260;2023-04-07T09:03:24;7.43;;;2.25;;
59308;SDS011;48433;53.016;-2.260;2023-04-07T09:05:53;11.60;;;2.50;;
59308;SDS011;48433;53.016;-2.260;2023-04-07T09:08:22;13.32;;;2.22;;
59308;SDS011;48433;53.016;-2.260;2023-04-07T09:10:50;7.07;;;2.30;;
59308;SDS011;48433;53.016;-2.260;2023-04-07T09:13:18;9.77;;;2.42;;
59308;SDS011;48433;53.016;-2.260;2023-04-07T09:15:45;9.38;;;2.40;;
59308;SDS011;48433;53.016;-2.260;2023-04-07T09:18:13;9.85;;;1.98;;
59308;SDS011;48433;53.016;-2.260;2023-04-07T09:21:01;9.43;;;2.72;;
59308;SDS011;48433;53.016;-2.260;2023-04-07T09:23:32;7.88;;;1.58;;
59308;SDS011;48433;53.016;-2.260;2023-04-07T09:28:52;6.90;;;1.45;;
59308;SDS011;48433;53.016;-2.260;2023-04-07T09:31:44;7.25;;;2.17;;
59308;SDS011;48433;53.016;-2.260;2023-04-07T09:34:30;7.65;;;1.70;;
59308;SDS011;48433;53.016;-2.260;2023-04-07T09:36:59;6.22;;;1.63;;
59308;SDS011;48433;53.016;-2.260;2023-04-07T09:39:28;6.93;;;1.63;;
59308;SDS011;48433;53.016;-2.260;2023-04-07T09:41:55;9.40;;;2.35;;
59308;SDS011;48433;53.016;-2.260;2023-04-07T09:44:24;6.28;;;2.00;;
59308;SDS011;48433;53.016;-2.260;2023-04-07T09:46:53;7.78;;;1.75;;
59308;SDS011;48433;53.016;-2.260;2023-04-07T09:49:23;9.40;;;2.22;;
59308;SDS011;48433;53.016;-2.260;2023-04-07T09:54:34;6.97;;;1.75;;
59308;SDS011;48433;53.016;-2.260;2023-04-07T09:57:03;7.80;;;2.30;;
59308;SDS011;48433;53.016;-2.260;2023-04-07T09:59:35;7.88;;;2.65;;
59308;SDS011;48433;53.016;-2.260;2023-04-07T10:02:04;6.82;;;2.17;;
59308;SDS011;48433;53.016;-2.260;2023-04-07T10:04:35;6.95;;;1.92;;
59308;SDS011;48433;53.016;-2.260;2023-04-07T10:07:03;8.55;;;2.10;;
59308;SDS011;48433;53.016;-2.260;2023-04-07T10:09:31;8.18;;;1.83;;
59308;SDS011;48433;53.016;-2.260;2023-04-07T10:11:59;8.18;;;1.83;;
59308;SDS011;48433;53.016;-2.260;2023-04-07T10:14:29;3.90;;;1.30;;
59308;SDS011;48433;53.016;-2.260;2023-04-07T10:16:58;7.63;;;1.77;;
59308;SDS011;48433;53.016;-2.260;2023-04-07T10:19:31;8.90;;;1.60;;
59308;SDS011;48433;53.016;-2.260;2023-04-07T10:22:01;6.90;;;1.70;;
59308;SDS011;48433;53.016;-2.260;2023-04-07T10:27:28;7.93;;;1.92;;
59308;SDS011;48433;53.016;-2.260;2023-04-07T10:30:13;7.68;;;2.38;;
59308;SDS011;48433;53.016;-2.260;2023-04-07T10:32:45;6.95;;;1.90;;
59308;SDS011;48433;53.016;-2.260;2023-04-07T10:35:15;6.40;;;1.60;;
59308;SDS011;48433;53.016;-2.260;2023-04-07T10:40:33;4.80;;;1.50;;
59308;SDS011;48433;53.016;-2.260;2023-04-07T10:43:02;6.55;;;1.65;;
59308;SDS011;48433;53.016;-2.260;2023-04-07T10:48:20;7.40;;;2.10;;
59308;SDS011;48433;53.016;-2.260;2023-04-07T10:51:34;5.18;;;1.85;;
59308;SDS011;48433;53.016;-2.260;2023-04-07T10:59:29;5.47;;;1.58;;
59308;SDS011;48433;53.016;-2.260;2023-04-07T11:04:41;6.35;;;1.70;;
59308;SDS011;48433;53.016;-2.260;2023-04-07T11:07:13;4.53;;;1.45;;
59308;SDS011;48433;53.016;-2.260;2023-04-07T11:09:42;6.45;;;1.50;;
59308;SDS011;48433;53.016;-2.260;2023-04-07T11:12:22;8.95;;;2.17;;
59308;SDS011;48433;53.016;-2.260;2023-04-07T11:14:50;6.17;;;1.97;;
59308;SDS011;48433;53.016;-2.260;2023-04-07T11:17:18;4.88;;;1.48;;
59308;SDS011;48433;53.016;-2.260;2023-04-07T11:19:49;6.43;;;1.90;;
59308;SDS011;48433;53.016;-2.260;2023-04-07T11:22:20;4.45;;;1.38;;
59308;SDS011;48433;53.016;-2.260;2023-04-07T11:24:56;7.93;;;2.13;;
59308;SDS011;48433;53.016;-2.260;2023-04-07T11:27:24;4.72;;;1.50;;
59308;SDS011;48433;53.016;-2.260;2023-04-07T11:29:53;7.35;;;1.88;;
59308;SDS011;48433;53.016;-2.260;2023-04-07T11:32:21;6.82;;;1.40;;
59308;SDS011;48433;53.016;-2.260;2023-04-07T11:34:56;5.28;;;1.58;;
59308;SDS011;48433;53.016;-2.260;2023-04-07T11:37:24;3.80;;;1.23;;
59308;SDS011;48433;53.016;-2.260;2023-04-07T11:39:55;7.25;;;1.60;;
59308;SDS011;48433;53.016;-2.260;2023-04-07T11:42:31;3.88;;;1.40;;
59308;SDS011;48433;53.016;-2.260;2023-04-07T11:45:02;11.68;;;1.95;;
59308;SDS011;48433;53.016;-2.260;2023-04-07T11:50:05;6.82;;;1.75;;
59308;SDS011;48433;53.016;-2.260;2023-04-07T11:52:44;6.68;;;1.55;;
59308;SDS011;48433;53.016;-2.260;2023-04-07T11:55:17;6.63;;;1.60;;
59308;SDS011;48433;53.016;-2.260;2023-04-07T11:57:48;4.68;;;1.92;;
59308;SDS011;48433;53.016;-2.260;2023-04-07T12:00:18;6.60;;;1.50;;
59308;SDS011;48433;53.016;-2.260;2023-04-07T12:02:46;3.72;;;1.27;;
59308;SDS011;48433;53.016;-2.260;2023-04-07T12:05:14;4.65;;;1.50;;
59308;SDS011;48433;53.016;-2.260;2023-04-07T12:07:51;4.50;;;1.10;;
59308;SDS011;48433;53.016;-2.260;2023-04-07T12:10:20;3.60;;;1.00;;
59308;SDS011;48433;53.016;-2.260;2023-04-07T12:12:49;4.13;;;1.30;;
59308;SDS011;48433;53.016;-2.260;2023-04-07T12:15:17;5.38;;;1.40;;
59308;SDS011;48433;53.016;-2.260;2023-04-07T12:17:46;5.13;;;1.77;;
59308;SDS011;48433;53.016;-2.260;2023-04-07T12:20:15;5.90;;;1.70;;
59308;SDS011;48433;53.016;-2.260;2023-04-07T12:22:42;6.75;;;2.00;;
59308;SDS011;48433;53.016;-2.260;2023-04-07T12:25:10;4.72;;;1.55;;
59308;SDS011;48433;53.016;-2.260;2023-04-07T12:27:38;3.85;;;1.05;;
59308;SDS011;48433;53.016;-2.260;2023-04-07T12:30:10;4.03;;;1.70;;
59308;SDS011;48433;53.016;-2.260;2023-04-07T12:32:39;6.47;;;1.52;;
59308;SDS011;48433;53.016;-2.260;2023-04-07T12:35:07;7.32;;;1.92;;
59308;SDS011;48433;53.016;-2.260;2023-04-07T12:37:34;5.55;;;1.90;;
59308;SDS011;48433;53.016;-2.260;2023-04-07T12:40:03;5.78;;;1.75;;
59308;SDS011;48433;53.016;-2.260;2023-04-07T12:42:31;4.88;;;1.75;;
59308;SDS011;48433;53.016;-2.260;2023-04-07T12:44:58;6.57;;;2.10;;
59308;SDS011;48433;53.016;-2.260;2023-04-07T12:47:26;5.68;;;1.70;;
59308;SDS011;48433;53.016;-2.260;2023-04-07T12:49:54;4.65;;;1.48;;
59308;SDS011;48433;53.016;-2.260;2023-04-07T12:52:22;3.88;;;1.27;;
59308;SDS011;48433;53.016;-2.260;2023-04-07T12:54:49;7.95;;;2.45;;
59308;SDS011;48433;53.016;-2.260;2023-04-07T12:57:17;5.35;;;1.70;;
59308;SDS011;48433;53.016;-2.260;2023-04-07T12:59:45;6.95;;;1.92;;
59308;SDS011;48433;53.016;-2.260;2023-04-07T13:02:12;4.85;;;1.45;;
59308;SDS011;48433;53.016;-2.260;2023-04-07T13:04:41;5.10;;;1.70;;
59308;SDS011;48433;53.016;-2.260;2023-04-07T13:07:12;6.50;;;1.65;;
59308;SDS011;48433;53.016;-2.260;2023-04-07T13:09:40;4.07;;;1.40;;
59308;SDS011;48433;53.016;-2.260;2023-04-07T13:12:09;3.85;;;1.60;;
59308;SDS011;48433;53.016;-2.260;2023-04-07T13:14:38;6.47;;;1.50;;
59308;SDS011;48433;53.016;-2.260;2023-04-07T13:17:25;3.83;;;1.35;;
59308;SDS011;48433;53.016;-2.260;2023-04-07T13:19:53;7.13;;;1.77;;
59308;SDS011;48433;53.016;-2.260;2023-04-07T13:22:21;6.28;;;2.05;;
59308;SDS011;48433;53.016;-2.260;2023-04-07T13:24:50;5.75;;;1.90;;
59308;SDS011;48433;53.016;-2.260;2023-04-07T13:27:18;4.68;;;1.48;;
59308;SDS011;48433;53.016;-2.260;2023-04-07T13:29:46;3.72;;;1.38;;
59308;SDS011;48433;53.016;-2.260;2023-04-07T13:32:13;4.63;;;1.30;;
59308;SDS011;48433;53.016;-2.260;2023-04-07T13:34:41;7.72;;;1.73;;
59308;SDS011;48433;53.016;-2.260;2023-04-07T13:37:09;3.88;;;1.30;;
59308;SDS011;48433;53.016;-2.260;2023-04-07T13:39:37;4.72;;;1.52;;
59308;SDS011;48433;53.016;-2.260;2023-04-07T13:42:05;9.05;;;1.48;;
59308;SDS011;48433;53.016;-2.260;2023-04-07T13:44:32;6.25;;;1.75;;
59308;SDS011;48433;53.016;-2.260;2023-04-07T13:47:00;7.50;;;1.83;;
59308;SDS011;48433;53.016;-2.260;2023-04-07T13:49:29;6.50;;;2.03;;
59308;SDS011;48433;53.016;-2.260;2023-04-07T13:51:57;8.10;;;1.40;;
59308;SDS011;48433;53.016;-2.260;2023-04-07T13:54:24;5.82;;;1.60;;
59308;SDS011;48433;53.016;-2.260;2023-04-07T13:56:52;4.65;;;1.55;;
59308;SDS011;48433;53.016;-2.260;2023-04-07T13:59:19;5.43;;;1.40;;
59308;SDS011;48433;53.016;-2.260;2023-04-07T14:01:47;5.40;;;1.50;;
59308;SDS011;48433;53.016;-2.260;2023-04-07T14:04:15;4.47;;;1.80;;
59308;SDS011;48433;53.016;-2.260;2023-04-07T14:06:43;4.85;;;1.90;;
59308;SDS011;48433;53.016;-2.260;2023-04-07T14:09:10;5.80;;;1.70;;
59308;SDS011;48433;53.016;-2.260;2023-04-07T14:11:38;6.05;;;1.80;;
59308;SDS011;48433;53.016;-2.260;2023-04-07T14:14:06;6.00;;;1.70;;
59308;SDS011;48433;53.016;-2.260;2023-04-07T14:16:34;6.07;;;1.73;;
59308;SDS011;48433;53.016;-2.260;2023-04-07T14:19:02;7.22;;;1.95;;
59308;SDS011;48433;53.016;-2.260;2023-04-07T14:21:30;7.55;;;1.95;;
59308;SDS011;48433;53.016;-2.260;2023-04-07T14:23:58;5.90;;;1.70;;
59308;SDS011;48433;53.016;-2.260;2023-04-07T14:26:26;5.97;;;1.80;;
59308;SDS011;48433;53.016;-2.260;2023-04-07T14:28:54;3.97;;;1.58;;
59308;SDS011;48433;53.016;-2.260;2023-04-07T14:31:21;6.57;;;1.80;;
59308;SDS011;48433;53.016;-2.260;2023-04-07T14:33:49;4.78;;;1.77;;
59308;SDS011;48433;53.016;-2.260;2023-04-07T14:36:17;6.45;;;1.98;;
59308;SDS011;48433;53.016;-2.260;2023-04-07T14:38:45;6.07;;;1.60;;
59308;SDS011;48433;53.016;-2.260;2023-04-07T14:41:12;5.57;;;1.60;;
59308;SDS011;48433;53.016;-2.260;2023-04-07T14:43:40;6.28;;;1.58;;
59308;SDS011;48433;53.016;-2.260;2023-04-07T14:46:08;3.55;;;1.33;;
59308;SDS011;48433;53.016;-2.260;2023-04-07T14:48:36;5.85;;;1.58;;
59308;SDS011;48433;53.016;-2.260;2023-04-07T14:51:08;5.35;;;1.60;;
59308;SDS011;48433;53.016;-2.260;2023-04-07T14:53:41;7.65;;;1.85;;
59308;SDS011;48433;53.016;-2.260;2023-04-07T14:56:09;5.63;;;1.70;;
59308;SDS011;48433;53.016;-2.260;2023-04-07T14:58:37;5.75;;;1.70;;
59308;SDS011;48433;53.016;-2.260;2023-04-07T15:01:06;4.38;;;1.48;;
59308;SDS011;48433;53.016;-2.260;2023-04-07T15:03:34;7.68;;;1.88;;
59308;SDS011;48433;53.016;-2.260;2023-04-07T15:06:06;5.03;;;1.40;;
59308;SDS011;48433;53.016;-2.260;2023-04-07T15:08:36;3.85;;;1.42;;
59308;SDS011;48433;53.016;-2.260;2023-04-07T15:11:04;5.07;;;1.42;;
59308;SDS011;48433;53.016;-2.260;2023-04-07T15:13:36;6.45;;;1.60;;
59308;SDS011;48433;53.016;-2.260;2023-04-07T15:16:10;5.00;;;1.40;;
59308;SDS011;48433;53.016;-2.260;2023-04-07T15:18:40;4.80;;;1.60;;